sensor_id;sensor_type;location;lat;lon;timestamp;pressure;altitude;pressure_sealevel;temperature;humidity
34742;BME280;20968;42.696;23.360;2023-02-16T00:00:15;96536.13;;;4.13;61.02
34742;BME280;20968;42.696;23.360;2023-02-16T00:02:41;96543.19;;;4.07;61.46
34742;BME280;20968;42.696;23.360;2023-02-16T00:05:33;96539.69;;;4.03;61.52
34742;BME280;20968;42.696;23.360;2023-02-16T00:07:59;96536.25;;;3.99;61.08
34742;BME280;20968;42.696;23.360;2023-02-16T00:10:29;96540.91;;;3.99;61.50
34742;BME280;20968;42.696;23.360;2023-02-16T00:12:55;96531.59;;;3.96;61.31
34742;BME280;20968;42.696;23.360;2023-02-16T00:15:40;96528.47;;;3.98;61.11
34742;BME280;20968;42.696;23.360;2023-02-16T00:18:20;96529.25;;;3.98;61.52
34742;BME280;20968;42.696;23.360;2023-02-16T00:20:47;96530.03;;;3.95;60.97
34742;BME280;20968;42.696;23.360;2023-02-16T00:23:13;96531.63;;;3.93;61.00
34742;BME280;20968;42.696;23.360;2023-02-16T00:25:38;96526.19;;;3.89;61.56
34742;BME280;20968;42.696;23.360;2023-02-16T00:28:12;96529.72;;;3.90;61.52
34742;BME280;20968;42.696;23.360;2023-02-16T00:30:38;96523.13;;;3.84;61.38
34742;BME280;20968;42.696;23.360;2023-02-16T00:33:15;96536.38;;;3.85;61.79
34742;BME280;20968;42.696;23.360;2023-02-16T00:35:40;96524.34;;;3.80;61.42
34742;BME280;20968;42.696;23.360;2023-02-16T00:38:08;96527.81;;;3.83;62.05
34742;BME280;20968;42.696;23.360;2023-02-16T00:40:34;96526.63;;;3.84;62.14
34742;BME280;20968;42.696;23.360;2023-02-16T00:43:00;96516.56;;;3.78;61.73
34742;BME280;20968;42.696;23.360;2023-02-16T00:45:25;96525.50;;;3.82;61.42
34742;BME280;20968;42.696;23.360;2023-02-16T00:47:51;96515.41;;;3.79;61.48
34742;BME280;20968;42.696;23.360;2023-02-16T00:50:22;96522.38;;;3.83;61.64
34742;BME280;20968;42.696;23.360;2023-02-16T00:52:48;96522.38;;;3.83;61.83
34742;BME280;20968;42.696;23.360;2023-02-16T00:55:19;96514.63;;;3.79;61.10
34742;BME280;20968;42.696;23.360;2023-02-16T01:00:41;96523.97;;;3.78;61.47
34742;BME280;20968;42.696;23.360;2023-02-16T01:03:28;96520.91;;;3.72;61.24
34742;BME280;20968;42.696;23.360;2023-02-16T01:05:54;96519.72;;;3.73;61.77
34742;BME280;20968;42.696;23.360;2023-02-16T01:08:38;96522.47;;;3.70;61.87
34742;BME280;20968;42.696;23.360;2023-02-16T01:11:21;96515.88;;;3.67;61.90
34742;BME280;20968;42.696;23.360;2023-02-16T01:13:49;96517.84;;;3.63;61.49
34742;BME280;20968;42.696;23.360;2023-02-16T01:16:20;96518.63;;;3.64;61.57
34742;BME280;20968;42.696;23.360;2023-02-16T01:18:47;96513.97;;;3.64;61.73
34742;BME280;20968;42.696;23.360;2023-02-16T01:21:12;96502.34;;;3.57;62.14
34742;BME280;20968;42.696;23.360;2023-02-16T01:23:38;96505.44;;;3.59;62.26
34742;BME280;20968;42.696;23.360;2023-02-16T01:26:05;96504.69;;;3.58;62.05
34742;BME280;20968;42.696;23.360;2023-02-16T01:28:34;96497.66;;;3.61;61.89
34742;BME280;20968;42.696;23.360;2023-02-16T01:31:03;96492.63;;;3.59;62.19
34742;BME280;20968;42.696;23.360;2023-02-16T01:33:29;96503.09;;;3.61;62.18
34742;BME280;20968;42.696;23.360;2023-02-16T01:35:56;96496.47;;;3.62;61.91
34742;BME280;20968;42.696;23.360;2023-02-16T01:38:26;96489.06;;;3.62;62.12
34742;BME280;20968;42.696;23.360;2023-02-16T01:41:04;96491.44;;;3.60;61.80
34742;BME280;20968;42.696;23.360;2023-02-16T01:43:44;96489.13;;;3.55;61.58
34742;BME280;20968;42.696;23.360;2023-02-16T01:46:18;96492.25;;;3.54;61.97
34742;BME280;20968;42.696;23.360;2023-02-16T01:48:45;96479.09;;;3.49;61.53
34742;BME280;20968;42.696;23.360;2023-02-16T01:51:36;96482.59;;;3.46;61.51
34742;BME280;20968;42.696;23.360;2023-02-16T01:54:33;96478.72;;;3.43;61.88
34742;BME280;20968;42.696;23.360;2023-02-16T01:57:10;96487.28;;;3.42;61.51
34742;BME280;20968;42.696;23.360;2023-02-16T02:04:56;96484.59;;;3.38;61.54
34742;BME280;20968;42.696;23.360;2023-02-16T02:10:27;96469.88;;;3.29;61.77
34742;BME280;20968;42.696;23.360;2023-02-16T02:13:05;96484.66;;;3.28;61.59
34742;BME280;20968;42.696;23.360;2023-02-16T02:15:31;96473.03;;;3.24;62.15
34742;BME280;20968;42.696;23.360;2023-02-16T02:17:58;96477.66;;;3.27;62.47
34742;BME280;20968;42.696;23.360;2023-02-16T02:23:43;96480.03;;;3.25;61.84
34742;BME280;20968;42.696;23.360;2023-02-16T02:32:10;96473.78;;;3.24;62.19
34742;BME280;20968;42.696;23.360;2023-02-16T02:37:41;96473.84;;;3.17;62.30
34742;BME280;20968;42.696;23.360;2023-02-16T02:40:40;96468.03;;;3.15;62.58
34742;BME280;20968;42.696;23.360;2023-02-16T02:43:15;96474.69;;;3.11;62.06
34742;BME280;20968;42.696;23.360;2023-02-16T02:45:53;96468.50;;;3.04;62.35
34742;BME280;20968;42.696;23.360;2023-02-16T02:48:20;96480.53;;;3.06;62.82
34742;BME280;20968;42.696;23.360;2023-02-16T02:50:52;96477.81;;;3.06;62.85
34742;BME280;20968;42.696;23.360;2023-02-16T02:53:49;96470.03;;;3.08;62.76
34742;BME280;20968;42.696;23.360;2023-02-16T02:56:16;96476.25;;;3.05;62.55
34742;BME280;20968;42.696;23.360;2023-02-16T02:59:06;96474.69;;;3.11;62.11
34742;BME280;20968;42.696;23.360;2023-02-16T03:01:55;96482.84;;;3.04;62.29
34742;BME280;20968;42.696;23.360;2023-02-16T03:04:24;96484.06;;;3.03;61.97
34742;BME280;20968;42.696;23.360;2023-02-16T03:06:53;96481.34;;;3.03;62.20
34742;BME280;20968;42.696;23.360;2023-02-16T03:09:21;96479.00;;;2.98;62.28
34742;BME280;20968;42.696;23.360;2023-02-16T03:11:48;96475.56;;;2.94;62.06
34742;BME280;20968;42.696;23.360;2023-02-16T03:14:43;96482.91;;;2.97;62.36
34742;BME280;20968;42.696;23.360;2023-02-16T03:17:12;96481.72;;;2.98;62.28
34742;BME280;20968;42.696;23.360;2023-02-16T03:20:00;96482.53;;;2.95;61.80
34742;BME280;20968;42.696;23.360;2023-02-16T03:22:44;96477.91;;;2.89;62.48
34742;BME280;20968;42.696;23.360;2023-02-16T03:25:33;96477.53;;;2.87;61.88
34742;BME280;20968;42.696;23.360;2023-02-16T03:28:20;96479.47;;;2.90;62.01
34742;BME280;20968;42.696;23.360;2023-02-16T03:31:07;96473.66;;;2.84;62.23
34742;BME280;20968;42.696;23.360;2023-02-16T03:33:35;96475.97;;;2.86;62.22
34742;BME280;20968;42.696;23.360;2023-02-16T03:36:01;96470.94;;;2.81;62.54
34742;BME280;20968;42.696;23.360;2023-02-16T03:38:27;96474.06;;;2.79;62.23
34742;BME280;20968;42.696;23.360;2023-02-16T03:40:54;96462.06;;;2.77;62.26
34742;BME280;20968;42.696;23.360;2023-02-16T03:43:23;96474.81;;;2.83;62.11
34742;BME280;20968;42.696;23.360;2023-02-16T03:45:49;96474.44;;;2.81;62.06
34742;BME280;20968;42.696;23.360;2023-02-16T03:48:15;96476.41;;;2.77;62.24
34742;BME280;20968;42.696;23.360;2023-02-16T03:50:40;96471.75;;;2.74;63.05
34742;BME280;20968;42.696;23.360;2023-02-16T03:53:06;96472.53;;;2.78;62.55
34742;BME280;20968;42.696;23.360;2023-02-16T03:55:42;96477.97;;;2.78;62.42
34742;BME280;20968;42.696;23.360;2023-02-16T03:58:10;96477.19;;;2.74;62.51
34742;BME280;20968;42.696;23.360;2023-02-16T04:00:36;96472.94;;;2.70;62.47
34742;BME280;20968;42.696;23.360;2023-02-16T04:03:03;96471.78;;;2.67;62.60
34742;BME280;20968;42.696;23.360;2023-02-16T04:05:28;96470.63;;;2.65;62.39
34742;BME280;20968;42.696;23.360;2023-02-16T04:07:54;96465.59;;;2.67;62.41
34742;BME280;20968;42.696;23.360;2023-02-16T04:10:20;96467.94;;;2.61;62.47
34742;BME280;20968;42.696;23.360;2023-02-16T04:12:46;96462.47;;;2.65;62.32
34742;BME280;20968;42.696;23.360;2023-02-16T04:15:17;96464.78;;;2.66;62.36
34742;BME280;20968;42.696;23.360;2023-02-16T04:17:43;96461.72;;;2.64;62.27
34742;BME280;20968;42.696;23.360;2023-02-16T04:20:13;96457.84;;;2.58;61.98
34742;BME280;20968;42.696;23.360;2023-02-16T04:22:39;96462.50;;;2.61;61.98
34742;BME280;20968;42.696;23.360;2023-02-16T04:25:06;96459.03;;;2.61;61.99
34742;BME280;20968;42.696;23.360;2023-02-16T04:27:32;96448.19;;;2.54;62.33
34742;BME280;20968;42.696;23.360;2023-02-16T04:29:57;96458.63;;;2.62;61.65
34742;BME280;20968;42.696;23.360;2023-02-16T04:32:23;96458.66;;;2.52;61.98
34742;BME280;20968;42.696;23.360;2023-02-16T04:34:48;96453.63;;;2.50;61.94
34742;BME280;20968;42.696;23.360;2023-02-16T04:37:13;96460.97;;;2.53;61.79
34742;BME280;20968;42.696;23.360;2023-02-16T04:39:39;96473.41;;;2.51;61.81
34742;BME280;20968;42.696;23.360;2023-02-16T04:42:04;96467.22;;;2.47;61.69
34742;BME280;20968;42.696;23.360;2023-02-16T04:44:30;96461.44;;;2.41;61.35
34742;BME280;20968;42.696;23.360;2023-02-16T04:46:55;96471.91;;;2.39;61.26
34742;BME280;20968;42.696;23.360;2023-02-16T04:49:21;96466.50;;;2.32;61.43
34742;BME280;20968;42.696;23.360;2023-02-16T04:51:47;96476.97;;;2.34;61.49
34742;BME280;20968;42.696;23.360;2023-02-16T04:54:12;96467.25;;;2.33;61.15
34742;BME280;20968;42.696;23.360;2023-02-16T04:56:38;96462.63;;;2.30;60.86
34742;BME280;20968;42.696;23.360;2023-02-16T04:59:03;96472.72;;;2.29;61.19
34742;BME280;20968;42.696;23.360;2023-02-16T05:01:28;96468.47;;;2.22;61.46
34742;BME280;20968;42.696;23.360;2023-02-16T05:03:55;96477.41;;;2.26;61.46
34742;BME280;20968;42.696;23.360;2023-02-16T05:06:21;96483.59;;;2.26;61.45
34742;BME280;20968;42.696;23.360;2023-02-16T05:08:47;96480.09;;;2.26;61.43
34742;BME280;20968;42.696;23.360;2023-02-16T05:11:13;96477.41;;;2.26;61.37
34742;BME280;20968;42.696;23.360;2023-02-16T05:13:58;96484.41;;;2.20;61.23
34742;BME280;20968;42.696;23.360;2023-02-16T05:16:44;96479.34;;;2.15;61.69
34742;BME280;20968;42.696;23.360;2023-02-16T05:19:10;96480.91;;;2.09;61.65
34742;BME280;20968;42.696;23.360;2023-02-16T05:21:36;96478.09;;;3.22;79.35
34742;BME280;20968;42.696;23.360;2023-02-16T05:24:09;96493.34;;;5.37;85.31
34742;BME280;20968;42.696;23.360;2023-02-16T05:26:35;96483.81;;;6.43;76.28
34742;BME280;20968;42.696;23.360;2023-02-16T05:29:02;96479.78;;;6.28;72.01
34742;BME280;20968;42.696;23.360;2023-02-16T05:31:29;96491.91;;;5.81;67.78
34742;BME280;20968;42.696;23.360;2023-02-16T05:33:55;96486.34;;;5.36;67.42
34742;BME280;20968;42.696;23.360;2023-02-16T05:36:21;96500.75;;;5.10;66.48
34742;BME280;20968;42.696;23.360;2023-02-16T05:38:47;96501.91;;;4.79;65.17
34742;BME280;20968;42.696;23.360;2023-02-16T05:41:12;96499.06;;;4.56;62.66
34742;BME280;20968;42.696;23.360;2023-02-16T05:43:59;96507.88;;;4.34;61.89
34742;BME280;20968;42.696;23.360;2023-02-16T05:46:29;96511.19;;;4.15;60.31
34742;BME280;20968;42.696;23.360;2023-02-16T05:48:57;96509.00;;;3.99;59.49
34742;BME280;20968;42.696;23.360;2023-02-16T05:51:22;96510.31;;;3.84;59.44
34742;BME280;20968;42.696;23.360;2023-02-16T05:53:48;96512.31;;;3.74;58.97
34742;BME280;20968;42.696;23.360;2023-02-16T05:56:13;96513.97;;;3.61;59.02
34742;BME280;20968;42.696;23.360;2023-02-16T05:58:39;96510.94;;;3.52;58.95
34742;BME280;20968;42.696;23.360;2023-02-16T06:01:05;96507.13;;;3.42;58.97
34742;BME280;20968;42.696;23.360;2023-02-16T06:03:31;96507.19;;;3.32;59.09
34742;BME280;20968;42.696;23.360;2023-02-16T06:05:59;96512.69;;;3.25;59.42
34742;BME280;20968;42.696;23.360;2023-02-16T06:08:25;96512.34;;;3.16;59.47
34742;BME280;20968;42.696;23.360;2023-02-16T06:10:52;96518.53;;;3.16;59.73
34742;BME280;20968;42.696;23.360;2023-02-16T06:13:19;96524.78;;;3.17;59.69
34742;BME280;20968;42.696;23.360;2023-02-16T06:15:45;96525.97;;;3.09;60.02
34742;BME280;20968;42.696;23.360;2023-02-16T06:18:11;96526.75;;;3.06;60.19
34742;BME280;20968;42.696;23.360;2023-02-16T06:20:39;96527.56;;;3.03;60.32
34742;BME280;20968;42.696;23.360;2023-02-16T06:23:05;96532.22;;;3.03;59.92
34742;BME280;20968;42.696;23.360;2023-02-16T06:25:31;96541.53;;;3.02;60.27
34742;BME280;20968;42.696;23.360;2023-02-16T06:27:56;96535.34;;;3.01;60.06
34742;BME280;20968;42.696;23.360;2023-02-16T06:30:23;96538.47;;;3.00;60.72
34742;BME280;20968;42.696;23.360;2023-02-16T06:32:48;96534.97;;;2.96;61.24
34742;BME280;20968;42.696;23.360;2023-02-16T06:35:14;96533.41;;;2.95;60.86
34742;BME280;20968;42.696;23.360;2023-02-16T06:37:39;96544.66;;;3.00;61.08
34742;BME280;20968;42.696;23.360;2023-02-16T06:40:05;96538.78;;;3.08;61.02
34742;BME280;20968;42.696;23.360;2023-02-16T06:42:30;96551.25;;;3.06;61.35
34742;BME280;20968;42.696;23.360;2023-02-16T06:44:56;96547.34;;;3.10;61.55
34742;BME280;20968;42.696;23.360;2023-02-16T06:47:21;96546.84;;;3.33;60.21
34742;BME280;20968;42.696;23.360;2023-02-16T06:49:47;96543.72;;;3.31;60.49
34742;BME280;20968;42.696;23.360;2023-02-16T06:52:12;96550.63;;;3.46;58.83
34742;BME280;20968;42.696;23.360;2023-02-16T06:54:37;96544.44;;;3.38;58.73
34742;BME280;20968;42.696;23.360;2023-02-16T06:57:03;96548.28;;;3.51;58.66
34742;BME280;20968;42.696;23.360;2023-02-16T06:59:28;96551.34;;;3.53;59.06
34742;BME280;20968;42.696;23.360;2023-02-16T07:01:54;96550.88;;;3.69;58.84
34742;BME280;20968;42.696;23.360;2023-02-16T07:04:19;96546.56;;;3.71;58.96
34742;BME280;20968;42.696;23.360;2023-02-16T07:06:44;96548.47;;;3.78;58.94
34742;BME280;20968;42.696;23.360;2023-02-16T07:09:10;96547.25;;;3.85;59.06
34742;BME280;20968;42.696;23.360;2023-02-16T07:11:35;96537.09;;;3.89;59.41
34742;BME280;20968;42.696;23.360;2023-02-16T07:14:01;96539.75;;;3.96;59.41
34742;BME280;20968;42.696;23.360;2023-02-16T07:16:26;96533.47;;;4.03;59.40
34742;BME280;20968;42.696;23.360;2023-02-16T07:18:52;96528.34;;;4.12;59.73
34742;BME280;20968;42.696;23.360;2023-02-16T07:21:17;96537.59;;;4.21;59.36
34742;BME280;20968;42.696;23.360;2023-02-16T07:23:44;96521.59;;;4.27;59.16
34742;BME280;20968;42.696;23.360;2023-02-16T07:26:10;96516.44;;;4.36;59.72
34742;BME280;20968;42.696;23.360;2023-02-16T07:28:35;96518.00;;;4.33;59.39
34742;BME280;20968;42.696;23.360;2023-02-16T07:31:10;96526.91;;;4.41;59.73
34742;BME280;20968;42.696;23.360;2023-02-16T07:33:36;96518.22;;;4.49;60.23
34742;BME280;20968;42.696;23.360;2023-02-16T07:36:02;96512.00;;;4.49;59.74
34742;BME280;20968;42.696;23.360;2023-02-16T07:38:27;96518.69;;;4.44;59.49
34742;BME280;20968;42.696;23.360;2023-02-16T07:40:55;96523.34;;;4.47;60.08
34742;BME280;20968;42.696;23.360;2023-02-16T07:43:21;96521.44;;;4.41;60.19
34742;BME280;20968;42.696;23.360;2023-02-16T07:45:47;96519.34;;;4.55;59.97
34742;BME280;20968;42.696;23.360;2023-02-16T07:48:13;96523.19;;;4.61;59.56
34742;BME280;20968;42.696;23.360;2023-02-16T07:50:38;96513.06;;;4.58;60.19
34742;BME280;20968;42.696;23.360;2023-02-16T07:53:04;96521.50;;;4.70;59.96
34742;BME280;20968;42.696;23.360;2023-02-16T07:55:29;96525.31;;;4.76;59.63
34742;BME280;20968;42.696;23.360;2023-02-16T07:57:55;96518.28;;;4.79;59.88
34742;BME280;20968;42.696;23.360;2023-02-16T08:00:24;96521.78;;;4.79;60.03
34742;BME280;20968;42.696;23.360;2023-02-16T08:02:50;96522.78;;;4.92;59.78
34742;BME280;20968;42.696;23.360;2023-02-16T08:05:16;96529.38;;;4.95;59.83
34742;BME280;20968;42.696;23.360;2023-02-16T08:07:41;96526.63;;;4.98;59.69
34742;BME280;20968;42.696;23.360;2023-02-16T08:10:08;96527.69;;;5.08;59.60
34742;BME280;20968;42.696;23.360;2023-02-16T08:12:33;96523.31;;;5.14;59.74
34742;BME280;20968;42.696;23.360;2023-02-16T08:14:59;96530.63;;;5.20;59.99
34742;BME280;20968;42.696;23.360;2023-02-16T08:17:24;96527.06;;;5.23;59.47
34742;BME280;20968;42.696;23.360;2023-02-16T08:19:49;96527.88;;;5.24;59.80
34742;BME280;20968;42.696;23.360;2023-02-16T08:22:16;96528.16;;;5.29;59.69
34742;BME280;20968;42.696;23.360;2023-02-16T08:24:42;96533.63;;;5.29;59.60
34742;BME280;20968;42.696;23.360;2023-02-16T08:27:08;96540.22;;;5.32;60.23
34742;BME280;20968;42.696;23.360;2023-02-16T08:29:33;96528.69;;;5.21;60.47
34742;BME280;20968;42.696;23.360;2023-02-16T08:32:00;96532.28;;;5.40;61.94
34742;BME280;20968;42.696;23.360;2023-02-16T08:34:32;96530.13;;;5.29;60.76
34742;BME280;20968;42.696;23.360;2023-02-16T08:36:57;96535.44;;;5.39;61.83
34742;BME280;20968;42.696;23.360;2023-02-16T08:39:26;96530.63;;;5.50;60.83
34742;BME280;20968;42.696;23.360;2023-02-16T08:41:52;96530.09;;;5.58;59.57
34742;BME280;20968;42.696;23.360;2023-02-16T08:44:19;96533.03;;;5.71;59.40
34742;BME280;20968;42.696;23.360;2023-02-16T08:46:46;96524.53;;;5.65;59.67
34742;BME280;20968;42.696;23.360;2023-02-16T08:49:14;96528.69;;;5.73;59.10
34742;BME280;20968;42.696;23.360;2023-02-16T08:51:43;96532.47;;;5.83;59.43
34742;BME280;20968;42.696;23.360;2023-02-16T08:54:14;96520.63;;;5.93;59.18
34742;BME280;20968;42.696;23.360;2023-02-16T08:56:39;96529.13;;;5.98;59.20
34742;BME280;20968;42.696;23.360;2023-02-16T08:59:09;96525.34;;;5.89;59.69
34742;BME280;20968;42.696;23.360;2023-02-16T09:01:35;96521.94;;;6.08;59.37
34742;BME280;20968;42.696;23.360;2023-02-16T09:04:00;96520.56;;;6.19;59.26
34742;BME280;20968;42.696;23.360;2023-02-16T09:06:26;96526.72;;;6.23;59.01
34742;BME280;20968;42.696;23.360;2023-02-16T09:08:52;96519.00;;;6.18;59.25
34742;BME280;20968;42.696;23.360;2023-02-16T09:11:19;96517.72;;;6.26;59.00
34742;BME280;20968;42.696;23.360;2023-02-16T09:13:44;96524.59;;;6.34;59.07
34742;BME280;20968;42.696;23.360;2023-02-16T09:16:16;96515.06;;;6.42;58.83
34742;BME280;20968;42.696;23.360;2023-02-16T09:18:42;96503.31;;;6.84;67.56
34742;BME280;20968;42.696;23.360;2023-02-16T09:21:16;96515.91;;;7.71;61.75
34742;BME280;20968;42.696;23.360;2023-02-16T09:23:44;96507.75;;;7.52;56.10
34742;BME280;20968;42.696;23.360;2023-02-16T09:26:15;96515.81;;;7.59;55.21
34742;BME280;20968;42.696;23.360;2023-02-16T09:28:42;96501.00;;;7.56;56.23
34742;BME280;20968;42.696;23.360;2023-02-16T09:33:34;96506.75;;;7.62;55.10
34742;BME280;20968;42.696;23.360;2023-02-16T09:36:04;96503.81;;;7.53;55.57
34742;BME280;20968;42.696;23.360;2023-02-16T09:38:29;96511.09;;;7.75;54.74
34742;BME280;20968;42.696;23.360;2023-02-16T09:40:55;96501.03;;;7.88;53.81
34742;BME280;20968;42.696;23.360;2023-02-16T09:45:55;96498.38;;;8.00;55.09
34742;BME280;20968;42.696;23.360;2023-02-16T09:50:49;96479.31;;;8.09;54.31
34742;BME280;20968;42.696;23.360;2023-02-16T09:53:34;96482.50;;;8.40;53.67
34742;BME280;20968;42.696;23.360;2023-02-16T09:58:52;96471.75;;;8.73;51.76
34742;BME280;20968;42.696;23.360;2023-02-16T10:01:30;96474.34;;;8.93;50.84
34742;BME280;20968;42.696;23.360;2023-02-16T10:09:27;96460.03;;;9.26;49.72
34742;BME280;20968;42.696;23.360;2023-02-16T10:12:05;96464.34;;;9.39;49.64
34742;BME280;20968;42.696;23.360;2023-02-16T10:14:43;96463.59;;;9.51;49.83
34742;BME280;20968;42.696;23.360;2023-02-16T10:22:34;96442.56;;;9.95;48.17
34742;BME280;20968;42.696;23.360;2023-02-16T10:25:19;96443.97;;;10.11;48.63
34742;BME280;20968;42.696;23.360;2023-02-16T10:28:14;96448.69;;;10.23;48.81
34742;BME280;20968;42.696;23.360;2023-02-16T10:30:41;96449.06;;;10.34;48.64
34742;BME280;20968;42.696;23.360;2023-02-16T10:35:59;96427.34;;;10.49;48.23
34742;BME280;20968;42.696;23.360;2023-02-16T10:41:41;96436.19;;;10.65;47.03
34742;BME280;20968;42.696;23.360;2023-02-16T10:44:12;96426.53;;;10.82;46.68
34742;BME280;20968;42.696;23.360;2023-02-16T10:46:45;96431.84;;;10.98;46.17
34742;BME280;20968;42.696;23.360;2023-02-16T10:49:14;96426.31;;;10.98;45.78
34742;BME280;20968;42.696;23.360;2023-02-16T10:51:45;96415.66;;;11.09;46.29
34742;BME280;20968;42.696;23.360;2023-02-16T10:54:24;96418.56;;;11.36;45.88
34742;BME280;20968;42.696;23.360;2023-02-16T10:56:51;96418.38;;;11.52;45.33
34742;BME280;20968;42.696;23.360;2023-02-16T11:01:58;96403.16;;;11.86;45.47
34742;BME280;20968;42.696;23.360;2023-02-16T11:04:41;96398.25;;;11.90;43.32
34742;BME280;20968;42.696;23.360;2023-02-16T11:07:14;96402.84;;;11.93;44.60
34742;BME280;20968;42.696;23.360;2023-02-16T11:09:42;96393.22;;;11.98;43.72
34742;BME280;20968;42.696;23.360;2023-02-16T11:14:47;96385.72;;;12.25;43.27
34742;BME280;20968;42.696;23.360;2023-02-16T11:17:15;96385.44;;;12.59;42.29
34742;BME280;20968;42.696;23.360;2023-02-16T11:19:55;96381.13;;;12.40;42.14
34742;BME280;20968;42.696;23.360;2023-02-16T11:22:37;96381.91;;;12.41;42.38
34742;BME280;20968;42.696;23.360;2023-02-16T11:25:24;96368.41;;;12.60;42.41
34742;BME280;20968;42.696;23.360;2023-02-16T11:27:59;96368.88;;;12.68;42.34
34742;BME280;20968;42.696;23.360;2023-02-16T11:33:03;96365.03;;;12.56;40.87
34742;BME280;20968;42.696;23.360;2023-02-16T11:35:31;96357.16;;;12.82;41.76
34742;BME280;20968;42.696;23.360;2023-02-16T11:38:05;96349.72;;;13.15;41.13
34742;BME280;20968;42.696;23.360;2023-02-16T11:40:32;96348.75;;;13.35;40.84
34742;BME280;20968;42.696;23.360;2023-02-16T11:42:59;96349.53;;;13.59;39.96
34742;BME280;20968;42.696;23.360;2023-02-16T11:45:31;96336.69;;;13.47;39.71
34742;BME280;20968;42.696;23.360;2023-02-16T11:47:58;96341.00;;;13.48;38.98
34742;BME280;20968;42.696;23.360;2023-02-16T11:50:27;96344.31;;;13.61;39.13
34742;BME280;20968;42.696;23.360;2023-02-16T11:55:35;96332.44;;;13.70;38.80
34742;BME280;20968;42.696;23.360;2023-02-16T11:58:20;96330.03;;;13.86;38.57
34742;BME280;20968;42.696;23.360;2023-02-16T12:18:01;96305.03;;;14.85;36.44
34742;BME280;20968;42.696;23.360;2023-02-16T12:29:23;96281.69;;;15.69;34.52
34742;BME280;20968;42.696;23.360;2023-02-16T12:39:38;96279.03;;;15.80;33.76
34742;BME280;20968;42.696;23.360;2023-02-16T12:42:17;96272.22;;;15.61;34.97
34742;BME280;20968;42.696;23.360;2023-02-16T12:44:50;96264.03;;;15.72;34.07
34742;BME280;20968;42.696;23.360;2023-02-16T12:47:31;96259.31;;;15.78;33.91
34742;BME280;20968;42.696;23.360;2023-02-16T12:50:02;96252.38;;;15.88;34.18
34742;BME280;20968;42.696;23.360;2023-02-16T12:52:38;96259.44;;;15.89;33.74
34742;BME280;20968;42.696;23.360;2023-02-16T12:57:35;96243.44;;;15.98;33.41
34742;BME280;20968;42.696;23.360;2023-02-16T13:00:20;96241.53;;;15.70;33.96
34742;BME280;20968;42.696;23.360;2023-02-16T13:03:10;96238.06;;;15.95;33.52
34742;BME280;20968;42.696;23.360;2023-02-16T13:05:39;96233.47;;;16.12;33.62
34742;BME280;20968;42.696;23.360;2023-02-16T13:08:20;96234.34;;;16.23;33.11
34742;BME280;20968;42.696;23.360;2023-02-16T13:10:57;96237.50;;;16.31;33.20
34742;BME280;20968;42.696;23.360;2023-02-16T13:13:31;96235.47;;;16.31;33.25
34742;BME280;20968;42.696;23.360;2023-02-16T13:16:22;96213.41;;;16.28;33.63
34742;BME280;20968;42.696;23.360;2023-02-16T13:18:51;96227.81;;;16.26;32.96
34742;BME280;20968;42.696;23.360;2023-02-16T13:21:51;96229.69;;;16.35;32.84
34742;BME280;20968;42.696;23.360;2023-02-16T13:27:14;96214.81;;;16.18;33.56
34742;BME280;20968;42.696;23.360;2023-02-16T13:33:30;96213.31;;;16.17;33.44
34742;BME280;20968;42.696;23.360;2023-02-16T13:36:02;96206.66;;;16.29;32.96
34742;BME280;20968;42.696;23.360;2023-02-16T13:41:43;96210.38;;;16.26;33.41
34742;BME280;20968;42.696;23.360;2023-02-16T13:44:18;96197.47;;;16.23;32.69
34742;BME280;20968;42.696;23.360;2023-02-16T13:46:47;96198.00;;;16.27;32.22
34742;BME280;20968;42.696;23.360;2023-02-16T13:52:10;96193.34;;;16.38;32.60
34742;BME280;20968;42.696;23.360;2023-02-16T13:54:39;96197.16;;;16.40;32.42
34742;BME280;20968;42.696;23.360;2023-02-16T13:57:10;96192.81;;;16.34;32.10
34742;BME280;20968;42.696;23.360;2023-02-16T14:02:03;96184.44;;;16.09;33.09
34742;BME280;20968;42.696;23.360;2023-02-16T14:14:37;96188.78;;;16.15;32.72
34742;BME280;20968;42.696;23.360;2023-02-16T14:19:48;96175.88;;;16.12;33.26
34742;BME280;20968;42.696;23.360;2023-02-16T14:22:17;96185.19;;;16.09;33.05
34742;BME280;20968;42.696;23.360;2023-02-16T14:24:53;96181.59;;;16.03;33.14
34742;BME280;20968;42.696;23.360;2023-02-16T14:27:49;96179.53;;;15.98;33.28
34742;BME280;20968;42.696;23.360;2023-02-16T14:30:50;96178.00;;;15.97;33.02
34742;BME280;20968;42.696;23.360;2023-02-16T14:38:36;96181.03;;;15.99;32.86
34742;BME280;20968;42.696;23.360;2023-02-16T14:41:14;96178.97;;;15.94;33.68
34742;BME280;20968;42.696;23.360;2023-02-16T14:43:49;96177.44;;;15.93;33.53
34742;BME280;20968;42.696;23.360;2023-02-16T14:55:06;96178.28;;;15.40;34.16
34742;BME280;20968;42.696;23.360;2023-02-16T15:00:28;96164.41;;;15.05;34.13
34742;BME280;20968;42.696;23.360;2023-02-16T15:03:00;96166.75;;;14.92;34.53
34742;BME280;20968;42.696;23.360;2023-02-16T15:05:29;96167.84;;;14.80;34.83
34742;BME280;20968;42.696;23.360;2023-02-16T15:08:16;96166.03;;;14.63;35.02
34742;BME280;20968;42.696;23.360;2023-02-16T15:10:44;96167.28;;;14.48;34.86
34742;BME280;20968;42.696;23.360;2023-02-16T15:13:20;96156.78;;;14.23;35.73
34742;BME280;20968;42.696;23.360;2023-02-16T15:15:49;96166.56;;;14.09;36.01
34742;BME280;20968;42.696;23.360;2023-02-16T15:18:19;96166.59;;;13.95;36.28
34742;BME280;20968;42.696;23.360;2023-02-16T15:20:48;96162.25;;;13.80;36.88
34742;BME280;20968;42.696;23.360;2023-02-16T15:23:46;96162.22;;;13.65;36.54
34742;BME280;20968;42.696;23.360;2023-02-16T15:26:33;96166.97;;;13.50;37.42
34742;BME280;20968;42.696;23.360;2023-02-16T15:29:16;96158.13;;;13.37;37.52
34742;BME280;20968;42.696;23.360;2023-02-16T15:31:45;96153.97;;;13.19;38.08
34742;BME280;20968;42.696;23.360;2023-02-16T15:34:13;96157.97;;;13.18;38.40
34742;BME280;20968;42.696;23.360;2023-02-16T15:36:41;96164.03;;;13.07;38.88